Time;durP1;ratioP1;P1;durP2;ratioP2;P2;SDS_P1;SDS_P2;PMS_P1;PMS_P2;Temp;Humidity;BMP_temperature;BMP_pressure;BME280_temperature;BME280_humidity;BME280_pressure;Samples;Min_cycle;Max_cycle;Signal;HPM_P1;HPM_P2
2023/08/03 00:00:23;;;;;;;2.78;1.05;;;17.30;99.90;;;;;;5032107;28;20195;-48
2023/08/03 00:02:48;;;;;;;2.05;1.02;;;17.10;99.90;;;;;;5031128;28;20182;-47
2023/08/03 00:05:17;;;;;;;1.35;0.80;;;17.20;99.90;;;;;;5031926;28;20246;-48
2023/08/03 00:07:44;;;;;;;2.45;1.27;;;17.40;99.90;;;;;;5032566;28;20171;-48
2023/08/03 00:10:09;;;;;;;2.83;1.38;;;18.10;99.90;;;;;;5031102;28;20226;-48
2023/08/03 00:12:35;;;;;;;1.67;1.00;;;17.40;99.90;;;;;;5031811;28;20215;-48
2023/08/03 00:15:00;;;;;;;4.85;1.55;;;17.30;99.90;;;;;;5031928;28;20574;-48
2023/08/03 00:17:26;;;;;;;5.35;1.02;;;17.30;99.90;;;;;;5031944;28;20167;-48
2023/08/03 00:19:51;;;;;;;2.05;1.10;;;17.30;99.90;;;;;;5029766;28;20646;-47
2023/08/03 00:22:17;;;;;;;3.53;1.23;;;17.30;99.90;;;;;;5031768;28;20608;-48
2023/08/03 00:24:42;;;;;;;2.40;1.00;;;17.40;99.90;;;;;;5032280;28;20238;-48
2023/08/03 00:27:08;;;;;;;0.70;0.70;;;17.30;99.90;;;;;;5032224;28;20199;-47
2023/08/03 00:29:34;;;;;;;1.38;1.15;;;17.40;99.90;;;;;;5031773;28;20164;-48
2023/08/03 00:32:00;;;;;;;2.60;1.23;;;17.40;99.90;;;;;;5031699;28;20653;-48
2023/08/03 00:34:27;;;;;;;2.10;0.65;;;17.30;99.90;;;;;;5031109;28;20178;-48
2023/08/03 00:36:52;;;;;;;2.10;1.70;;;17.30;99.90;;;;;;5030563;28;20190;-48
2023/08/03 00:39:18;;;;;;;2.85;0.90;;;17.30;99.90;;;;;;5031609;28;20694;-48
2023/08/03 00:41:43;;;;;;;1.52;0.60;;;17.40;99.90;;;;;;5031611;28;20683;-48
2023/08/03 00:44:09;;;;;;;0.95;0.57;;;17.20;99.90;;;;;;5031976;28;20650;-47
2023/08/03 00:46:35;;;;;;;0.90;0.50;;;17.30;99.90;;;;;;5031536;28;20203;-48
2023/08/03 00:49:01;;;;;;;1.48;0.95;;;17.20;99.90;;;;;;5031422;28;20163;-48
2023/08/03 00:51:27;;;;;;;2.47;0.93;;;17.30;99.90;;;;;;5031800;28;20171;-48
2023/08/03 00:53:53;;;;;;;2.63;0.95;;;17.20;99.90;;;;;;5031459;28;20238;-48
2023/08/03 00:56:19;;;;;;;4.45;1.00;;;17.20;99.90;;;;;;5031478;28;20310;-48
2023/08/03 00:58:44;;;;;;;3.15;1.10;;;17.30;99.90;;;;;;5031486;28;20160;-48
2023/08/03 01:01:10;;;;;;;5.40;1.00;;;17.30;99.90;;;;;;5031758;28;20203;-48
2023/08/03 01:03:35;;;;;;;2.00;1.08;;;17.20;99.90;;;;;;5023897;28;20172;-48
2023/08/03 01:06:01;;;;;;;3.33;1.00;;;17.20;99.90;;;;;;5014732;28;20168;-48
2023/08/03 01:08:27;;;;;;;1.83;0.82;;;17.30;99.90;;;;;;5015731;28;20200;-48
2023/08/03 01:10:53;;;;;;;0.70;0.70;;;17.30;99.90;;;;;;5015902;28;20179;-47
2023/08/03 01:13:20;;;;;;;1.80;1.10;;;17.10;99.90;;;;;;5016440;28;20575;-47
2023/08/03 01:15:46;;;;;;;6.10;1.30;;;17.10;99.90;;;;;;5015607;28;20172;-48
2023/08/03 01:18:11;;;;;;;2.65;1.00;;;17.00;99.90;;;;;;5015959;28;20701;-47
2023/08/03 01:20:39;;;;;;;1.33;0.80;;;17.10;99.90;;;;;;5015449;28;20226;-48
2023/08/03 01:23:05;;;;;;;1.85;1.05;;;17.00;99.90;;;;;;5014188;28;20167;-47
2023/08/03 01:25:34;;;;;;;1.25;0.90;;;16.90;99.90;;;;;;5015370;28;20262;-47
2023/08/03 01:28:00;;;;;;;1.73;1.00;;;17.00;99.90;;;;;;5015139;28;20182;-48
2023/08/03 01:30:26;;;;;;;3.17;1.15;;;17.00;99.90;;;;;;5015266;28;20254;-47
2023/08/03 01:32:51;;;;;;;2.60;1.38;;;17.00;99.90;;;;;;5019796;28;20167;-48
2023/08/03 01:35:18;;;;;;;0.80;0.80;;;17.00;99.90;;;;;;5034934;28;20666;-48
2023/08/03 01:37:44;;;;;;;2.60;1.08;;;16.80;99.90;;;;;;5034896;28;20159;-48
2023/08/03 01:40:10;;;;;;;4.18;1.33;;;16.90;99.90;;;;;;5035176;28;20167;-48
2023/08/03 01:42:37;;;;;;;2.38;1.17;;;16.90;99.90;;;;;;5035064;28;20308;-48
2023/08/03 01:45:05;;;;;;;3.67;1.10;;;16.80;99.90;;;;;;5034769;28;20403;-48
2023/08/03 01:47:30;;;;;;;2.17;1.13;;;16.90;99.90;;;;;;5034758;28;20195;-48
2023/08/03 01:49:56;;;;;;;1.95;0.90;;;16.90;99.90;;;;;;5034669;28;20244;-49
2023/08/03 01:52:21;;;;;;;2.45;1.23;;;17.10;99.90;;;;;;5034554;28;20168;-49
2023/08/03 01:54:47;;;;;;;3.42;1.17;;;17.10;99.90;;;;;;5034594;28;20525;-48
2023/08/03 01:57:14;;;;;;;3.63;1.10;;;17.10;99.90;;;;;;5034644;28;20179;-48
2023/08/03 01:59:40;;;;;;;3.70;1.02;;;17.00;99.90;;;;;;5034933;28;20171;-48
2023/08/03 02:02:06;;;;;;;1.83;0.95;;;17.00;99.90;;;;;;5033084;28;20601;-48
2023/08/03 02:04:31;;;;;;;3.28;0.65;;;17.10;99.90;;;;;;5014614;28;20172;-48
2023/08/03 02:07:07;;;;;;;2.50;1.20;;;17.10;99.90;;;;;;5014632;28;20172;-47
2023/08/03 02:09:33;;;;;;;1.40;0.95;;;17.10;99.90;;;;;;5014751;28;20210;-48
2023/08/03 02:11:58;;;;;;;1.60;1.15;;;17.10;99.90;;;;;;5014454;28;20223;-48
2023/08/03 02:14:24;;;;;;;2.75;1.02;;;17.00;99.90;;;;;;5014237;28;20255;-48
2023/08/03 02:16:49;;;;;;;3.70;1.20;;;17.10;99.90;;;;;;5014447;28;20524;-48
2023/08/03 02:19:15;;;;;;;0.95;0.82;;;17.00;99.90;;;;;;5013113;28;20667;-48
2023/08/03 02:21:41;;;;;;;1.67;1.00;;;17.00;99.90;;;;;;5014943;28;20702;-48
2023/08/03 02:24:06;;;;;;;3.08;1.20;;;17.10;99.90;;;;;;5014241;28;20172;-48
2023/08/03 02:26:32;;;;;;;3.33;1.13;;;17.00;99.90;;;;;;5014272;28;20183;-47
2023/08/03 02:28:57;;;;;;;1.35;1.00;;;17.00;99.90;;;;;;5014214;28;20261;-48
2023/08/03 02:31:23;;;;;;;2.45;0.82;;;17.00;99.90;;;;;;5014079;28;20179;-48
2023/08/03 02:33:49;;;;;;;2.72;1.00;;;17.10;99.90;;;;;;5028315;28;20182;-48
2023/08/03 02:36:14;;;;;;;2.63;1.67;;;17.10;99.90;;;;;;5034109;28;20167;-48
2023/08/03 02:38:40;;;;;;;2.30;1.13;;;17.10;99.90;;;;;;5034237;28;20168;-47
2023/08/03 02:41:05;;;;;;;1.73;1.08;;;17.10;99.90;;;;;;5033619;28;20214;-48
2023/08/03 02:43:31;;;;;;;6.43;1.27;;;17.10;99.90;;;;;;5033709;28;20159;-47
2023/08/03 02:45:56;;;;;;;4.10;2.55;;;17.10;99.90;;;;;;5033986;28;20174;-47
2023/08/03 02:48:22;;;;;;;3.95;1.45;;;17.00;99.90;;;;;;5033639;28;20221;-48
2023/08/03 02:50:47;;;;;;;2.83;1.20;;;16.90;99.90;;;;;;5033828;28;20168;-48
2023/08/03 02:53:13;;;;;;;3.03;1.17;;;17.00;99.90;;;;;;5033714;28;20167;-47
2023/08/03 02:55:39;;;;;;;8.00;1.13;;;17.00;99.90;;;;;;5034011;28;20634;-48
2023/08/03 02:58:04;;;;;;;1.52;0.95;;;16.90;99.90;;;;;;5033487;28;20639;-48
2023/08/03 03:00:30;;;;;;;1.73;1.10;;;16.90;99.90;;;;;;5033404;28;20199;-47
2023/08/03 03:02:56;;;;;;;1.80;1.30;;;17.00;99.90;;;;;;5032852;28;20206;-47
2023/08/03 03:05:21;;;;;;;2.85;0.82;;;16.90;99.90;;;;;;5019500;28;20179;-48
2023/08/03 03:07:47;;;;;;;3.85;1.02;;;16.90;99.90;;;;;;5013401;28;20172;-48
2023/08/03 03:10:13;;;;;;;1.60;0.68;;;17.00;99.90;;;;;;5013368;28;20172;-47
2023/08/03 03:12:39;;;;;;;3.20;0.80;;;17.00;99.90;;;;;;5013582;28;20346;-49
2023/08/03 03:15:05;;;;;;;1.48;0.85;;;17.00;99.90;;;;;;5013632;28;20530;-48
2023/08/03 03:17:31;;;;;;;1.35;0.88;;;16.90;99.90;;;;;;5013122;28;20538;-48
2023/08/03 03:19:56;;;;;;;1.20;0.70;;;17.00;99.90;;;;;;5013074;28;20687;-48
2023/08/03 03:22:22;;;;;;;5.55;1.25;;;17.00;99.90;;;;;;5013050;28;20671;-49
2023/08/03 03:24:47;;;;;;;2.33;0.68;;;17.00;99.90;;;;;;5012523;28;20222;-48
2023/08/03 03:27:13;;;;;;;2.90;1.10;;;17.00;99.90;;;;;;5013060;28;20227;-48
2023/08/03 03:29:38;;;;;;;2.55;0.65;;;17.00;99.90;;;;;;5013613;28;20195;-48
2023/08/03 03:32:04;;;;;;;0.95;0.75;;;17.00;99.90;;;;;;5014037;28;20222;-48
2023/08/03 03:34:30;;;;;;;2.92;0.70;;;16.90;99.90;;;;;;5017897;28;20179;-48
2023/08/03 03:36:55;;;;;;;1.77;1.13;;;16.90;99.90;;;;;;5032588;28;20167;-48
2023/08/03 03:39:21;;;;;;;1.52;1.10;;;16.90;99.90;;;;;;5032580;28;20171;-48
2023/08/03 03:41:46;;;;;;;2.83;1.30;;;17.00;99.90;;;;;;5032451;28;20222;-48
2023/08/03 03:44:12;;;;;;;2.05;1.17;;;16.80;99.90;;;;;;5032623;28;20195;-47
2023/08/03 03:46:37;;;;;;;1.60;1.20;;;16.90;99.90;;;;;;5032884;28;20175;-47
2023/08/03 03:49:03;;;;;;;0.80;0.50;;;16.90;99.90;;;;;;5032403;28;20172;-47
2023/08/03 03:51:28;;;;;;;0.80;0.80;;;16.80;99.90;;;;;;5032100;28;20193;-47
2023/08/03 03:53:54;;;;;;;2.40;0.82;;;16.90;99.90;;;;;;5032369;28;20172;-47
2023/08/03 03:56:20;;;;;;;0.50;0.50;;;16.70;99.90;;;;;;5030996;28;20555;-47
2023/08/03 03:58:45;;;;;;;4.53;1.00;;;16.70;99.90;;;;;;5032200;28;20164;-47
2023/08/03 04:01:11;;;;;;;3.95;1.10;;;16.80;99.90;;;;;;5031171;28;20207;-48
2023/08/03 04:03:36;;;;;;;0.75;0.68;;;16.60;99.90;;;;;;5031935;28;20182;-48
2023/08/03 04:06:02;;;;;;;0.80;0.70;;;16.70;99.90;;;;;;5031978;28;20254;-48
2023/08/03 04:08:27;;;;;;;2.35;0.85;;;16.70;99.90;;;;;;5032127;28;20168;-47
2023/08/03 04:10:53;;;;;;;0.50;0.43;;;16.60;99.90;;;;;;5030632;28;20167;-48
2023/08/03 04:13:18;;;;;;;0.80;0.80;;;16.60;99.90;;;;;;5031708;28;20266;-48
2023/08/03 04:15:44;;;;;;;2.72;0.85;;;16.80;99.90;;;;;;5031826;28;20579;-48
2023/08/03 04:18:10;;;;;;;0.80;0.80;;;16.80;99.90;;;;;;5031029;28;20193;-47
2023/08/03 04:20:35;;;;;;;2.53;1.08;;;16.80;99.90;;;;;;5031767;28;20211;-47
2023/08/03 04:23:01;;;;;;;1.02;0.77;;;16.90;99.90;;;;;;5031711;28;20198;-47
2023/08/03 04:25:26;;;;;;;1.88;0.82;;;16.70;99.90;;;;;;5032011;28;20163;-47
2023/08/03 04:27:52;;;;;;;0.63;0.63;;;16.80;99.90;;;;;;5031830;28;20179;-47
2023/08/03 04:30:17;;;;;;;0.60;0.60;;;16.80;99.90;;;;;;5031684;28;20170;-47
2023/08/03 04:32:43;;;;;;;1.45;0.88;;;16.80;99.90;;;;;;5023012;28;20180;-47
2023/08/03 04:35:09;;;;;;;1.25;0.82;;;16.70;99.90;;;;;;5012539;28;20164;-47
2023/08/03 04:37:35;;;;;;;2.17;0.90;;;16.80;99.90;;;;;;5012058;28;20217;-49
2023/08/03 04:40:00;;;;;;;1.23;0.90;;;16.80;99.90;;;;;;5011742;28;20246;-48
2023/08/03 04:42:26;;;;;;;0.43;0.43;;;16.90;99.90;;;;;;5011794;28;20211;-48
2023/08/03 04:44:51;;;;;;;1.33;0.90;;;16.80;99.90;;;;;;5011871;28;20244;-48
2023/08/03 04:47:18;;;;;;;0.82;0.80;;;16.80;99.90;;;;;;5011765;28;20174;-48
2023/08/03 04:49:43;;;;;;;3.97;0.98;;;16.80;99.90;;;;;;5011748;28;20163;-47
2023/08/03 04:52:09;;;;;;;2.10;1.00;;;16.90;99.90;;;;;;5012037;28;20182;-48
2023/08/03 04:54:34;;;;;;;1.98;1.10;;;16.90;99.90;;;;;;5011561;28;20183;-49
2023/08/03 04:57:00;;;;;;;1.50;0.50;;;16.90;99.90;;;;;;5011701;28;20164;-47
2023/08/03 04:59:26;;;;;;;0.82;0.57;;;17.00;99.90;;;;;;5011675;28;20243;-48
2023/08/03 05:01:51;;;;;;;0.60;0.60;;;17.10;99.90;;;;;;5013203;28;20219;-48
2023/08/03 05:04:17;;;;;;;2.63;0.60;;;17.00;99.90;;;;;;5030979;28;20171;-48
2023/08/03 05:06:42;;;;;;;0.47;0.47;;;17.10;99.90;;;;;;5031179;28;20203;-47
2023/08/03 05:09:08;;;;;;;0.30;0.30;;;17.10;99.90;;;;;;5031859;28;20213;-48
2023/08/03 05:11:33;;;;;;;0.50;0.50;;;17.10;99.90;;;;;;5029834;28;20257;-48
2023/08/03 05:13:59;;;;;;;2.47;0.73;;;17.20;99.90;;;;;;5030083;28;20532;-48
2023/08/03 05:16:26;;;;;;;0.77;0.60;;;17.20;99.90;;;;;;5031290;28;20186;-48
2023/08/03 05:18:52;;;;;;;1.02;0.45;;;17.20;99.90;;;;;;5031095;28;20196;-48
2023/08/03 05:21:18;;;;;;;2.80;0.55;;;17.20;99.90;;;;;;5031051;28;20210;-48
2023/08/03 05:23:45;;;;;;;2.15;0.70;;;17.10;99.90;;;;;;5031299;28;20526;-48
2023/08/03 05:26:11;;;;;;;0.85;0.70;;;17.20;99.90;;;;;;5031634;28;20249;-47
2023/08/03 05:28:36;;;;;;;2.45;0.88;;;17.30;99.90;;;;;;5030987;28;20210;-47
2023/08/03 05:31:02;;;;;;;2.58;0.95;;;17.30;99.90;;;;;;5031030;28;20171;-48
2023/08/03 05:33:27;;;;;;;1.65;0.60;;;17.40;99.90;;;;;;5029312;28;20196;-47
2023/08/03 05:35:53;;;;;;;0.52;0.30;;;17.40;99.90;;;;;;5029455;28;20263;-48
2023/08/03 05:38:19;;;;;;;0.50;0.50;;;17.40;99.90;;;;;;5031028;28;20176;-48
2023/08/03 05:40:44;;;;;;;0.77;0.73;;;17.40;99.90;;;;;;5030879;28;20191;-47
2023/08/03 05:43:13;;;;;;;0.98;0.65;;;17.40;99.90;;;;;;5030169;28;20579;-49
2023/08/03 05:45:45;;;;;;;7.53;1.00;;;17.20;99.90;;;;;;5031211;28;20247;-47
2023/08/03 05:48:13;;;;;;;2.95;0.60;;;17.20;99.90;;;;;;5031929;28;20171;-49
2023/08/03 05:50:50;;;;;;;3.13;0.80;;;17.20;99.90;;;;;;5035076;28;20214;-47
2023/08/03 05:53:17;;;;;;;0.50;0.50;;;17.10;99.90;;;;;;5034764;28;20171;-49
2023/08/03 05:55:44;;;;;;;3.50;1.13;;;17.20;99.90;;;;;;5034670;28;20195;-47
2023/08/03 05:58:14;;;;;;;11.57;1.50;;;17.10;99.90;;;;;;5033662;28;20600;-48
2023/08/03 06:00:44;;;;;;;1.50;0.70;;;17.20;99.90;;;;;;5033597;28;20210;-49
2023/08/03 06:03:14;;;;;;;2.55;0.85;;;17.10;99.90;;;;;;5022112;28;20164;-47
2023/08/03 06:05:47;;;;;;;0.80;0.80;;;17.10;99.90;;;;;;5014976;28;20203;-47
2023/08/03 06:08:20;;;;;;;0.82;0.70;;;17.10;99.90;;;;;;5014495;28;20174;-48
2023/08/03 06:10:48;;;;;;;4.97;0.90;;;17.00;99.90;;;;;;5014521;28;20176;-47
2023/08/03 06:13:15;;;;;;;3.90;1.30;;;17.00;99.90;;;;;;5014260;28;20211;-47
2023/08/03 06:15:42;;;;;;;4.90;1.23;;;16.90;99.90;;;;;;5014891;28;20160;-48
2023/08/03 06:18:14;;;;;;;4.18;0.80;;;17.00;99.90;;;;;;5013437;28;20179;-48
2023/08/03 06:20:46;;;;;;;3.63;0.85;;;17.00;99.90;;;;;;5014642;28;20203;-49
2023/08/03 06:23:19;;;;;;;1.75;1.13;;;16.90;99.90;;;;;;5014203;28;20255;-49
2023/08/03 06:25:49;;;;;;;5.78;0.93;;;17.00;99.90;;;;;;5012895;28;20207;-49
2023/08/03 06:28:19;;;;;;;1.23;0.77;;;16.90;99.90;;;;;;5013948;28;20267;-56
2023/08/03 06:30:46;;;;;;;1.80;0.68;;;17.00;99.90;;;;;;5014035;28;20179;-49
2023/08/03 06:33:17;;;;;;;1.85;1.17;;;16.80;99.90;;;;;;5026209;28;20175;-48
2023/08/03 06:35:44;;;;;;;1.80;1.00;;;16.90;99.90;;;;;;5033793;28;20180;-49
2023/08/03 06:38:14;;;;;;;2.03;0.85;;;16.70;99.90;;;;;;5034233;28;20167;-50
2023/08/03 06:40:41;;;;;;;0.80;0.45;;;16.80;99.90;;;;;;5034211;28;20200;-50
2023/08/03 06:43:09;;;;;;;1.00;0.80;;;16.70;99.90;;;;;;5034316;28;20179;-49
2023/08/03 06:45:35;;;;;;;1.02;0.90;;;16.70;99.90;;;;;;5032995;28;20172;-51
2023/08/03 06:48:02;;;;;;;0.70;0.70;;;16.80;99.90;;;;;;5033904;28;20160;-50
2023/08/03 06:50:31;;;;;;;2.72;0.77;;;16.80;99.90;;;;;;5033337;28;20167;-49
2023/08/03 06:52:58;;;;;;;2.22;1.08;;;16.70;99.90;;;;;;5033530;28;20176;-47
2023/08/03 06:55:23;;;;;;;1.73;1.10;;;16.70;99.90;;;;;;5033343;28;20167;-49
2023/08/03 06:57:49;;;;;;;2.40;1.00;;;16.60;99.90;;;;;;5033719;28;20258;-47
2023/08/03 07:00:15;;;;;;;4.32;1.17;;;16.60;99.90;;;;;;5032447;28;20172;-49
2023/08/03 07:02:50;;;;;;;1.08;0.90;;;16.60;99.90;;;;;;5023174;28;20184;-48
2023/08/03 07:05:16;;;;;;;2.00;1.20;;;16.80;99.90;;;;;;5013431;28;20160;-49
2023/08/03 07:07:42;;;;;;;2.00;0.95;;;16.80;99.90;;;;;;5013725;28;20183;-49
2023/08/03 07:10:07;;;;;;;1.58;1.08;;;16.80;99.90;;;;;;4996177;28;20191;-49
2023/08/03 07:12:37;;;;;;;1.63;1.05;;;16.80;99.90;;;;;;5013190;28;20302;-49
2023/08/03 07:15:04;;;;;;;3.90;1.67;;;16.80;99.90;;;;;;5013283;28;20168;-49
2023/08/03 07:17:30;;;;;;;3.55;1.30;;;16.90;99.90;;;;;;5013522;28;20179;-48
2023/08/03 07:19:56;;;;;;;1.52;0.93;;;16.80;99.90;;;;;;5013316;28;20171;-48
2023/08/03 07:22:24;;;;;;;2.90;0.95;;;17.10;99.90;;;;;;5013386;28;20311;-49
2023/08/03 07:24:50;;;;;;;2.42;1.10;;;17.10;99.90;;;;;;5013195;28;20203;-49
2023/08/03 07:27:15;;;;;;;1.05;0.85;;;17.00;99.90;;;;;;5012934;28;20199;-48
2023/08/03 07:29:42;;;;;;;1.60;0.95;;;17.10;99.90;;;;;;5013373;28;20203;-47
2023/08/03 07:32:08;;;;;;;2.20;1.13;;;17.20;99.90;;;;;;5019218;28;20167;-47
2023/08/03 07:34:34;;;;;;;1.73;1.10;;;17.30;99.90;;;;;;5032700;28;20255;-47
2023/08/03 07:37:01;;;;;;;1.85;1.00;;;17.30;99.90;;;;;;5032748;28;20210;-47
2023/08/03 07:39:26;;;;;;;3.10;1.17;;;17.40;99.90;;;;;;5032700;28;20171;-47
2023/08/03 07:41:52;;;;;;;2.13;1.00;;;17.40;99.90;;;;;;5032779;28;20207;-47
2023/08/03 07:44:18;;;;;;;1.75;0.90;;;17.40;99.90;;;;;;5032606;28;20527;-47
2023/08/03 07:46:45;;;;;;;1.50;1.25;;;17.40;99.90;;;;;;5032477;28;20250;-47
2023/08/03 07:49:11;;;;;;;2.70;1.00;;;17.70;99.90;;;;;;5033143;28;20179;-47
2023/08/03 07:51:36;;;;;;;2.72;1.20;;;17.70;99.90;;;;;;5032873;28;20539;-47
2023/08/03 07:54:02;;;;;;;1.45;0.90;;;17.70;99.90;;;;;;5032447;28;20257;-47
2023/08/03 07:56:27;;;;;;;1.13;0.90;;;17.70;99.90;;;;;;5032352;28;20178;-47
2023/08/03 07:58:53;;;;;;;1.95;0.98;;;17.60;99.90;;;;;;5032339;28;20605;-47
2023/08/03 08:01:20;;;;;;;1.80;1.08;;;17.60;99.90;;;;;;5031800;28;20211;-47
2023/08/03 08:03:46;;;;;;;1.50;1.00;;;17.70;99.90;;;;;;5031665;28;20644;-47
2023/08/03 08:06:15;;;;;;;1.25;0.90;;;17.50;99.90;;;;;;5032262;28;20180;-47
2023/08/03 08:08:42;;;;;;;1.85;0.73;;;17.80;99.90;;;;;;5032393;28;20237;-47
2023/08/03 08:11:08;;;;;;;1.17;1.02;;;17.90;99.90;;;;;;5032269;28;20178;-47
2023/08/03 08:13:33;;;;;;;1.63;1.23;;;17.70;99.90;;;;;;5032073;28;20187;-47
2023/08/03 08:16:00;;;;;;;2.55;1.02;;;17.70;99.90;;;;;;5032006;28;20182;-47
2023/08/03 08:18:26;;;;;;;1.73;1.10;;;17.70;99.90;;;;;;5031979;28;20666;-47
2023/08/03 08:20:56;;;;;;;1.17;0.90;;;17.60;99.90;;;;;;5031919;28;20197;-47
2023/08/03 08:23:22;;;;;;;3.47;1.40;;;17.50;99.90;;;;;;5032199;28;20183;-48
2023/08/03 08:25:47;;;;;;;3.25;0.90;;;17.50;99.90;;;;;;5031960;28;20168;-47
2023/08/03 08:28:13;;;;;;;1.05;0.90;;;17.30;99.90;;;;;;5031864;28;20710;-47
2023/08/03 08:30:38;;;;;;;2.15;1.10;;;17.30;99.90;;;;;;5032249;28;20222;-47
2023/08/03 08:33:04;;;;;;;2.65;1.27;;;17.30;99.90;;;;;;5015901;28;20180;-48
2023/08/03 08:35:30;;;;;;;1.77;0.77;;;17.50;99.90;;;;;;5011984;28;20267;-48
2023/08/03 08:37:58;;;;;;;1.92;0.90;;;17.50;99.90;;;;;;5011996;28;20164;-47
2023/08/03 08:40:24;;;;;;;3.42;1.05;;;17.40;99.90;;;;;;5012036;28;20178;-48
2023/08/03 08:42:53;;;;;;;2.83;0.93;;;17.70;99.90;;;;;;5011991;28;20547;-48
2023/08/03 08:45:19;;;;;;;2.20;0.90;;;17.60;99.90;;;;;;5011926;28;20172;-47
2023/08/03 08:47:46;;;;;;;1.35;1.10;;;17.60;99.90;;;;;;5011912;28;20684;-47
2023/08/03 08:50:11;;;;;;;1.60;1.05;;;17.70;99.90;;;;;;5011860;28;20540;-47
2023/08/03 08:52:43;;;;;;;2.25;1.25;;;17.80;99.90;;;;;;5012162;28;20164;-50
2023/08/03 08:55:16;;;;;;;2.42;1.10;;;18.00;99.90;;;;;;5012162;28;20160;-50
2023/08/03 08:57:41;;;;;;;1.02;0.80;;;18.10;99.90;;;;;;5011721;28;20176;-47
2023/08/03 09:00:08;;;;;;;0.70;0.70;;;18.00;99.90;;;;;;5012087;28;20176;-48
2023/08/03 09:02:34;;;;;;;0.90;0.63;;;18.30;99.90;;;;;;5022540;28;20297;-49
2023/08/03 09:05:09;;;;;;;1.38;0.80;;;18.30;99.90;;;;;;5031343;28;20171;-49
2023/08/03 09:07:35;;;;;;;0.70;0.60;;;18.50;99.90;;;;;;5031607;28;20178;-48
2023/08/03 09:10:01;;;;;;;1.33;0.70;;;18.70;99.90;;;;;;5031276;28;20170;-48
2023/08/03 09:12:27;;;;;;;0.93;0.60;;;19.10;99.90;;;;;;5031028;28;20273;-47
2023/08/03 09:14:52;;;;;;;0.90;0.75;;;19.00;99.90;;;;;;5031357;28;20167;-48
2023/08/03 09:17:19;;;;;;;1.08;0.90;;;19.10;99.90;;;;;;5031491;28;20257;-48
2023/08/03 09:19:45;;;;;;;1.30;0.90;;;18.90;99.90;;;;;;5031271;28;20159;-47
2023/08/03 09:22:11;;;;;;;2.22;0.98;;;18.90;99.90;;;;;;5031398;28;20207;-47
2023/08/03 09:24:37;;;;;;;2.33;1.05;;;18.80;99.90;;;;;;5034657;28;20167;-49
2023/08/03 09:27:04;;;;;;;3.42;0.90;;;18.90;99.90;;;;;;5035145;28;20228;-47
2023/08/03 09:29:31;;;;;;;3.60;1.30;;;19.20;99.90;;;;;;5035685;28;20183;-49
2023/08/03 09:32:04;;;;;;;1.02;0.88;;;19.30;99.90;;;;;;5026624;28;20201;-47
2023/08/03 09:34:44;;;;;;;1.38;1.00;;;19.20;99.90;;;;;;5015527;28;20330;-47
2023/08/03 09:37:12;;;;;;;1.17;0.90;;;19.50;99.90;;;;;;5015610;28;20608;-47
2023/08/03 09:39:40;;;;;;;4.88;1.30;;;19.70;99.90;;;;;;5015582;28;20319;-48
2023/08/03 09:42:07;;;;;;;5.60;1.50;;;19.70;99.90;;;;;;5015430;28;20822;-48
2023/08/03 09:44:33;;;;;;;2.15;1.48;;;19.70;99.90;;;;;;5015170;28;20655;-49
2023/08/03 09:47:03;;;;;;;5.13;1.60;;;19.80;99.90;;;;;;5015223;28;20183;-49
2023/08/03 09:49:30;;;;;;;2.20;1.15;;;19.80;99.90;;;;;;5015182;28;20164;-50
2023/08/03 09:51:59;;;;;;;1.95;1.15;;;19.60;99.90;;;;;;5014797;28;20164;-47
2023/08/03 09:54:34;;;;;;;1.42;1.27;;;19.90;99.90;;;;;;5014881;28;20172;-47
2023/08/03 09:57:07;;;;;;;3.53;1.60;;;20.00;99.90;;;;;;5014536;28;20171;-49
2023/08/03 09:59:36;;;;;;;2.08;1.20;;;19.90;99.90;;;;;;5014530;28;20493;-48
2023/08/03 10:02:05;;;;;;;2.35;1.50;;;19.50;99.90;;;;;;5015390;28;20230;-48
2023/08/03 10:04:37;;;;;;;1.98;1.30;;;19.70;99.90;;;;;;5014507;28;20164;-48
2023/08/03 10:07:07;;;;;;;4.75;1.55;;;19.90;99.90;;;;;;5014454;28;20168;-49
2023/08/03 10:09:39;;;;;;;4.28;1.25;;;19.90;99.90;;;;;;5014412;28;20160;-47
2023/08/03 10:12:09;;;;;;;3.05;1.55;;;19.90;99.90;;;;;;5013910;28;20599;-48
2023/08/03 10:14:39;;;;;;;3.22;2.03;;;19.90;99.90;;;;;;5014340;28;20169;-47
2023/08/03 10:17:05;;;;;;;3.85;1.92;;;19.90;99.90;;;;;;5014316;28;20260;-47
2023/08/03 10:19:32;;;;;;;4.03;1.58;;;20.20;99.90;;;;;;5014565;28;20203;-47
2023/08/03 10:21:58;;;;;;;2.92;1.90;;;20.00;99.90;;;;;;5014135;28;20549;-47
2023/08/03 10:24:24;;;;;;;2.65;1.60;;;20.20;99.90;;;;;;5014169;28;20204;-47
2023/08/03 10:26:54;;;;;;;1.85;1.50;;;20.20;99.90;;;;;;5013838;28;20219;-47
2023/08/03 10:29:55;;;;;;;3.15;1.80;;;20.20;99.90;;;;;;5014284;28;20202;-47
2023/08/03 10:32:22;;;;;;;6.47;1.80;;;20.20;99.90;;;;;;5027784;28;20218;-47
2023/08/03 10:34:51;;;;;;;2.97;1.80;;;20.20;99.90;;;;;;5031971;28;20167;-47
2023/08/03 10:37:16;;;;;;;4.35;1.80;;;20.00;99.90;;;;;;5033602;28;20202;-47
2023/08/03 10:39:53;;;;;;;3.55;1.40;;;20.00;99.90;;;;;;5033576;28;20175;-47
2023/08/03 10:42:34;;;;;;;2.63;1.83;;;19.90;99.90;;;;;;5033569;28;20207;-47
2023/08/03 10:45:21;;;;;;;5.22;1.70;;;19.90;99.90;;;;;;5032351;28;20217;-47
2023/08/03 10:47:47;;;;;;;6.07;1.80;;;19.60;99.90;;;;;;5033503;28;20168;-46
2023/08/03 10:50:12;;;;;;;5.05;1.63;;;19.50;99.90;;;;;;5033626;28;20696;-47
2023/08/03 10:52:38;;;;;;;3.40;1.60;;;19.40;99.90;;;;;;5033823;28;20202;-47
2023/08/03 10:55:26;;;;;;;3.53;1.70;;;19.20;99.90;;;;;;5033373;28;20225;-47
2023/08/03 10:57:54;;;;;;;6.10;1.77;;;18.90;99.90;;;;;;5033243;28;20155;-47
2023/08/03 11:00:20;;;;;;;3.67;1.92;;;19.10;99.90;;;;;;5033265;28;20657;-47
2023/08/03 11:02:46;;;;;;;4.43;1.75;;;19.50;99.90;;;;;;5032648;28;20207;-46
2023/08/03 11:05:11;;;;;;;6.22;1.80;;;19.90;99.90;;;;;;5033159;28;20159;-50
2023/08/03 11:07:41;;;;;;;5.88;2.30;;;20.20;99.90;;;;;;5033503;28;20534;-50
2023/08/03 11:10:12;;;;;;;2.17;1.30;;;20.10;99.90;;;;;;5033074;28;20214;-49
2023/08/03 11:12:39;;;;;;;4.93;2.00;;;20.50;99.90;;;;;;5033152;28;20222;-49
2023/08/03 11:15:06;;;;;;;3.28;1.58;;;20.80;99.90;;;;;;5032918;28;20548;-49
2023/08/03 11:17:35;;;;;;;3.67;1.67;;;20.90;99.90;;;;;;5033194;28;20254;-49
2023/08/03 11:20:07;;;;;;;3.83;2.20;;;20.80;99.90;;;;;;5032876;28;20641;-49
2023/08/03 11:22:33;;;;;;;3.92;1.80;;;20.90;99.90;;;;;;5033033;28;20218;-50
2023/08/03 11:25:02;;;;;;;4.70;1.73;;;21.00;99.90;;;;;;5031298;28;20538;-50
2023/08/03 11:27:29;;;;;;;5.55;1.95;;;20.90;99.90;;;;;;5032722;28;20585;-49
2023/08/03 11:29:56;;;;;;;6.28;2.00;;;20.80;99.90;;;;;;5032555;28;20507;-49
2023/08/03 11:32:32;;;;;;;2.85;1.35;;;20.70;99.90;;;;;;5032197;28;20286;-49
2023/08/03 11:34:59;;;;;;;2.40;1.77;;;20.60;99.90;;;;;;5032812;28;20179;-49
2023/08/03 11:37:27;;;;;;;2.10;1.77;;;20.90;99.90;;;;;;5031297;28;20171;-49
2023/08/03 11:39:53;;;;;;;4.30;1.75;;;21.30;99.90;;;;;;5030975;28;20166;-50
2023/08/03 11:42:18;;;;;;;5.90;1.73;;;21.40;99.90;;;;;;5032291;28;20256;-50
2023/08/03 11:44:47;;;;;;;5.70;1.75;;;21.40;99.90;;;;;;5032332;28;20537;-50
2023/08/03 11:47:13;;;;;;;3.63;1.90;;;21.50;99.90;;;;;;5032075;28;20175;-49
2023/08/03 11:49:38;;;;;;;3.65;1.38;;;21.40;99.90;;;;;;5033012;28;20167;-49
2023/08/03 11:52:04;;;;;;;2.55;1.52;;;21.10;99.90;;;;;;5032278;28;20234;-50
2023/08/03 11:54:34;;;;;;;3.95;1.48;;;21.00;99.90;;;;;;5030663;28;20519;-50
2023/08/03 11:59:46;;;;;;;2.13;1.17;;;20.90;99.90;;;;;;5032412;28;20174;-49
2023/08/03 12:02:12;;;;;;;2.35;1.10;;;20.90;99.90;;;;;;5019737;28;20207;-49
2023/08/03 12:04:38;;;;;;;1.60;1.00;;;21.00;99.90;;;;;;5012449;28;20175;-50
2023/08/03 12:07:05;;;;;;;9.32;1.40;;;20.80;99.90;;;;;;5012395;28;20531;-50
2023/08/03 12:09:39;;;;;;;2.28;1.30;;;20.90;99.90;;;;;;5012006;28;20168;-49
2023/08/03 12:12:16;;;;;;;3.03;1.20;;;21.10;99.90;;;;;;5012596;28;20223;-50
2023/08/03 12:14:42;;;;;;;3.50;1.58;;;21.10;99.90;;;;;;5012174;28;20275;-49
2023/08/03 12:17:14;;;;;;;6.43;1.60;;;20.80;99.90;;;;;;5012602;28;20225;-49
2023/08/03 12:19:40;;;;;;;4.30;1.60;;;20.70;99.90;;;;;;5011949;28;20164;-49
2023/08/03 12:22:06;;;;;;;4.03;1.67;;;20.80;99.90;;;;;;5010823;28;20679;-48
2023/08/03 12:24:31;;;;;;;3.25;1.50;;;20.70;99.90;;;;;;5012246;28;20683;-48
2023/08/03 12:26:57;;;;;;;5.07;1.75;;;20.70;99.90;;;;;;5011864;28;20179;-50
2023/08/03 12:29:23;;;;;;;2.22;1.55;;;20.50;99.90;;;;;;5011895;28;20254;-50
2023/08/03 12:31:49;;;;;;;2.70;1.40;;;20.40;99.90;;;;;;5022832;28;20631;-50
2023/08/03 12:34:15;;;;;;;3.90;1.42;;;20.50;99.90;;;;;;5031261;28;20191;-49
2023/08/03 12:36:40;;;;;;;2.45;1.65;;;20.50;99.90;;;;;;5031178;28;20174;-49
2023/08/03 12:39:06;;;;;;;3.28;1.60;;;20.80;99.90;;;;;;5031852;28;20177;-50
2023/08/03 12:41:32;;;;;;;6.22;1.70;;;20.80;99.90;;;;;;5031367;28;20214;-50
2023/08/03 12:43:58;;;;;;;4.60;1.75;;;21.20;99.90;;;;;;5031703;28;20190;-49
2023/08/03 12:46:24;;;;;;;4.57;1.60;;;21.70;99.90;;;;;;5031404;28;20631;-49
2023/08/03 12:48:50;;;;;;;1.63;1.40;;;21.30;99.90;;;;;;5031704;28;20175;-47